sensor_id;sensor_type;location;lat;lon;timestamp;P1;durP1;ratioP1;P2;durP2;ratioP2
59008;SDS011;44794;42.652;23.318;2023-03-23T00:01:22;166.25;;;60.65;;
59008;SDS011;44794;42.652;23.318;2023-03-23T00:03:50;126.25;;;54.30;;
59008;SDS011;44794;42.652;23.318;2023-03-23T00:06:17;137.32;;;53.97;;
59008;SDS011;44794;42.652;23.318;2023-03-23T00:08:49;129.30;;;53.92;;
59008;SDS011;44794;42.652;23.318;2023-03-23T00:11:20;118.97;;;51.20;;
59008;SDS011;44794;42.652;23.318;2023-03-23T00:13:48;116.63;;;50.92;;
59008;SDS011;44794;42.652;23.318;2023-03-23T00:16:21;122.45;;;50.33;;
59008;SDS011;44794;42.652;23.318;2023-03-23T00:18:54;130.10;;;51.00;;
59008;SDS011;44794;42.652;23.318;2023-03-23T00:21:20;120.40;;;50.90;;
59008;SDS011;44794;42.652;23.318;2023-03-23T00:23:50;134.55;;;56.30;;
59008;SDS011;44794;42.652;23.318;2023-03-23T00:26:16;135.27;;;53.58;;
59008;SDS011;44794;42.652;23.318;2023-03-23T00:28:42;134.23;;;53.33;;
59008;SDS011;44794;42.652;23.318;2023-03-23T00:31:08;127.78;;;50.67;;
59008;SDS011;44794;42.652;23.318;2023-03-23T00:33:35;128.73;;;52.20;;
59008;SDS011;44794;42.652;23.318;2023-03-23T00:36:05;131.15;;;51.55;;
59008;SDS011;44794;42.652;23.318;2023-03-23T00:41:02;100.38;;;42.63;;
59008;SDS011;44794;42.652;23.318;2023-03-23T00:43:29;110.35;;;45.10;;
59008;SDS011;44794;42.652;23.318;2023-03-23T00:45:55;115.60;;;44.40;;
59008;SDS011;44794;42.652;23.318;2023-03-23T00:48:22;111.85;;;45.75;;
59008;SDS011;44794;42.652;23.318;2023-03-23T00:50:49;127.50;;;47.55;;
59008;SDS011;44794;42.652;23.318;2023-03-23T00:53:15;122.78;;;47.55;;
59008;SDS011;44794;42.652;23.318;2023-03-23T00:55:41;120.43;;;47.38;;
59008;SDS011;44794;42.652;23.318;2023-03-23T00:58:08;111.90;;;44.33;;
59008;SDS011;44794;42.652;23.318;2023-03-23T01:00:34;99.82;;;40.80;;
59008;SDS011;44794;42.652;23.318;2023-03-23T01:02:59;107.43;;;43.30;;
59008;SDS011;44794;42.652;23.318;2023-03-23T01:05:25;101.50;;;41.70;;
59008;SDS011;44794;42.652;23.318;2023-03-23T01:07:56;120.68;;;47.25;;
59008;SDS011;44794;42.652;23.318;2023-03-23T01:10:22;127.30;;;48.35;;
59008;SDS011;44794;42.652;23.318;2023-03-23T01:12:50;128.65;;;47.33;;
59008;SDS011;44794;42.652;23.318;2023-03-23T01:15:16;135.85;;;47.58;;
59008;SDS011;44794;42.652;23.318;2023-03-23T01:17:42;125.05;;;46.72;;
59008;SDS011;44794;42.652;23.318;2023-03-23T01:20:09;124.50;;;46.05;;
59008;SDS011;44794;42.652;23.318;2023-03-23T01:22:37;118.53;;;44.30;;
59008;SDS011;44794;42.652;23.318;2023-03-23T01:25:04;128.95;;;46.70;;
59008;SDS011;44794;42.652;23.318;2023-03-23T01:27:30;114.82;;;43.90;;
59008;SDS011;44794;42.652;23.318;2023-03-23T01:29:55;99.10;;;42.28;;
59008;SDS011;44794;42.652;23.318;2023-03-23T01:32:21;98.40;;;42.08;;
59008;SDS011;44794;42.652;23.318;2023-03-23T01:34:46;89.07;;;39.58;;
59008;SDS011;44794;42.652;23.318;2023-03-23T01:37:12;100.50;;;41.67;;
59008;SDS011;44794;42.652;23.318;2023-03-23T01:39:37;109.72;;;41.90;;
59008;SDS011;44794;42.652;23.318;2023-03-23T01:42:03;91.85;;;41.38;;
59008;SDS011;44794;42.652;23.318;2023-03-23T01:46:55;96.97;;;41.92;;
59008;SDS011;44794;42.652;23.318;2023-03-23T01:49:25;92.00;;;41.15;;
59008;SDS011;44794;42.652;23.318;2023-03-23T01:51:58;96.70;;;44.22;;
59008;SDS011;44794;42.652;23.318;2023-03-23T01:54:27;98.13;;;44.70;;
59008;SDS011;44794;42.652;23.318;2023-03-23T01:57:01;104.90;;;47.30;;
59008;SDS011;44794;42.652;23.318;2023-03-23T01:59:31;106.13;;;47.30;;
59008;SDS011;44794;42.652;23.318;2023-03-23T02:01:58;105.13;;;47.35;;
59008;SDS011;44794;42.652;23.318;2023-03-23T02:04:25;112.40;;;48.33;;
59008;SDS011;44794;42.652;23.318;2023-03-23T02:06:52;124.15;;;52.60;;
59008;SDS011;44794;42.652;23.318;2023-03-23T02:09:19;157.75;;;59.65;;
59008;SDS011;44794;42.652;23.318;2023-03-23T02:11:45;159.85;;;59.63;;
59008;SDS011;44794;42.652;23.318;2023-03-23T02:14:14;153.60;;;60.40;;
59008;SDS011;44794;42.652;23.318;2023-03-23T02:16:44;136.85;;;57.22;;
59008;SDS011;44794;42.652;23.318;2023-03-23T02:19:40;147.63;;;56.80;;
59008;SDS011;44794;42.652;23.318;2023-03-23T02:32:46;107.03;;;47.97;;
59008;SDS011;44794;42.652;23.318;2023-03-23T02:35:35;110.50;;;48.10;;
59008;SDS011;44794;42.652;23.318;2023-03-23T02:38:14;144.35;;;62.22;;
59008;SDS011;44794;42.652;23.318;2023-03-23T02:40:44;127.10;;;54.78;;
59008;SDS011;44794;42.652;23.318;2023-03-23T02:43:19;111.72;;;49.83;;
59008;SDS011;44794;42.652;23.318;2023-03-23T02:45:46;97.60;;;42.95;;
59008;SDS011;44794;42.652;23.318;2023-03-23T02:48:14;108.32;;;47.83;;
59008;SDS011;44794;42.652;23.318;2023-03-23T02:50:43;119.15;;;48.60;;
59008;SDS011;44794;42.652;23.318;2023-03-23T02:53:13;114.70;;;48.67;;
59008;SDS011;44794;42.652;23.318;2023-03-23T02:55:43;119.32;;;50.33;;
59008;SDS011;44794;42.652;23.318;2023-03-23T02:58:10;117.57;;;48.10;;
59008;SDS011;44794;42.652;23.318;2023-03-23T03:00:36;107.95;;;47.53;;
59008;SDS011;44794;42.652;23.318;2023-03-23T03:03:02;110.13;;;47.13;;
59008;SDS011;44794;42.652;23.318;2023-03-23T03:18:48;127.13;;;53.47;;
59008;SDS011;44794;42.652;23.318;2023-03-23T03:21:20;120.13;;;51.63;;
59008;SDS011;44794;42.652;23.318;2023-03-23T03:23:50;123.18;;;52.28;;
59008;SDS011;44794;42.652;23.318;2023-03-23T03:26:21;139.80;;;54.42;;
59008;SDS011;44794;42.652;23.318;2023-03-23T03:28:51;126.28;;;51.05;;
59008;SDS011;44794;42.652;23.318;2023-03-23T03:31:19;157.30;;;58.65;;
59008;SDS011;44794;42.652;23.318;2023-03-23T03:33:56;265.90;;;63.45;;
59008;SDS011;44794;42.652;23.318;2023-03-23T03:36:26;549.55;;;75.53;;
59008;SDS011;44794;42.652;23.318;2023-03-23T03:38:59;528.17;;;79.88;;
59008;SDS011;44794;42.652;23.318;2023-03-23T03:41:33;607.83;;;81.45;;
59008;SDS011;44794;42.652;23.318;2023-03-23T03:44:00;654.80;;;83.13;;
59008;SDS011;44794;42.652;23.318;2023-03-23T03:46:25;659.83;;;80.97;;
59008;SDS011;44794;42.652;23.318;2023-03-23T03:48:54;919.50;;;90.95;;
59008;SDS011;44794;42.652;23.318;2023-03-23T03:51:21;914.92;;;93.38;;
59008;SDS011;44794;42.652;23.318;2023-03-23T03:53:47;332.88;;;71.10;;
59008;SDS011;44794;42.652;23.318;2023-03-23T03:56:13;227.13;;;69.40;;
59008;SDS011;44794;42.652;23.318;2023-03-23T03:58:38;217.25;;;68.05;;
59008;SDS011;44794;42.652;23.318;2023-03-23T04:01:07;251.75;;;73.78;;
59008;SDS011;44794;42.652;23.318;2023-03-23T04:03:35;200.77;;;69.97;;
59008;SDS011;44794;42.652;23.318;2023-03-23T04:06:01;184.93;;;66.50;;
59008;SDS011;44794;42.652;23.318;2023-03-23T04:08:27;165.45;;;63.35;;
59008;SDS011;44794;42.652;23.318;2023-03-23T04:10:53;165.32;;;60.28;;
59008;SDS011;44794;42.652;23.318;2023-03-23T04:13:19;153.75;;;57.83;;
59008;SDS011;44794;42.652;23.318;2023-03-23T04:15:45;149.27;;;58.72;;
59008;SDS011;44794;42.652;23.318;2023-03-23T04:18:12;159.68;;;59.60;;
59008;SDS011;44794;42.652;23.318;2023-03-23T04:20:39;150.48;;;58.78;;
59008;SDS011;44794;42.652;23.318;2023-03-23T04:23:15;159.15;;;59.15;;
59008;SDS011;44794;42.652;23.318;2023-03-23T04:25:48;180.05;;;64.63;;
59008;SDS011;44794;42.652;23.318;2023-03-23T04:28:15;174.18;;;65.45;;
59008;SDS011;44794;42.652;23.318;2023-03-23T04:30:43;174.18;;;64.03;;
59008;SDS011;44794;42.652;23.318;2023-03-23T04:33:10;179.13;;;63.50;;
59008;SDS011;44794;42.652;23.318;2023-03-23T04:35:39;166.18;;;61.97;;
59008;SDS011;44794;42.652;23.318;2023-03-23T04:38:05;149.73;;;59.30;;
59008;SDS011;44794;42.652;23.318;2023-03-23T04:40:32;144.35;;;58.42;;
59008;SDS011;44794;42.652;23.318;2023-03-23T04:43:00;141.35;;;57.70;;
59008;SDS011;44794;42.652;23.318;2023-03-23T04:45:30;128.43;;;56.10;;
59008;SDS011;44794;42.652;23.318;2023-03-23T04:47:56;144.75;;;58.20;;
59008;SDS011;44794;42.652;23.318;2023-03-23T04:50:27;142.43;;;58.42;;
59008;SDS011;44794;42.652;23.318;2023-03-23T04:52:55;152.70;;;59.65;;
59008;SDS011;44794;42.652;23.318;2023-03-23T04:55:23;140.88;;;57.78;;
59008;SDS011;44794;42.652;23.318;2023-03-23T04:57:50;147.93;;;62.70;;
59008;SDS011;44794;42.652;23.318;2023-03-23T05:00:16;149.70;;;62.13;;
59008;SDS011;44794;42.652;23.318;2023-03-23T05:02:43;144.88;;;60.53;;
59008;SDS011;44794;42.652;23.318;2023-03-23T05:05:12;1469.68;;;157.55;;
59008;SDS011;44794;42.652;23.318;2023-03-23T05:07:39;140.50;;;60.40;;
59008;SDS011;44794;42.652;23.318;2023-03-23T05:10:06;133.98;;;58.40;;
59008;SDS011;44794;42.652;23.318;2023-03-23T05:12:33;120.30;;;54.95;;
59008;SDS011;44794;42.652;23.318;2023-03-23T05:14:59;121.50;;;55.35;;
59008;SDS011;44794;42.652;23.318;2023-03-23T05:17:25;108.95;;;53.33;;
59008;SDS011;44794;42.652;23.318;2023-03-23T05:19:51;110.63;;;52.35;;
59008;SDS011;44794;42.652;23.318;2023-03-23T05:22:16;114.88;;;53.47;;
59008;SDS011;44794;42.652;23.318;2023-03-23T05:24:42;110.88;;;52.58;;
59008;SDS011;44794;42.652;23.318;2023-03-23T05:27:11;104.95;;;52.08;;
59008;SDS011;44794;42.652;23.318;2023-03-23T05:29:37;101.68;;;50.25;;
59008;SDS011;44794;42.652;23.318;2023-03-23T05:32:06;90.30;;;44.78;;
59008;SDS011;44794;42.652;23.318;2023-03-23T05:34:32;87.35;;;44.35;;
59008;SDS011;44794;42.652;23.318;2023-03-23T05:36:59;85.47;;;44.60;;
59008;SDS011;44794;42.652;23.318;2023-03-23T05:39:26;76.85;;;39.90;;
59008;SDS011;44794;42.652;23.318;2023-03-23T05:41:52;68.80;;;37.30;;
59008;SDS011;44794;42.652;23.318;2023-03-23T05:44:17;67.72;;;39.20;;
59008;SDS011;44794;42.652;23.318;2023-03-23T05:46:44;76.28;;;38.65;;
59008;SDS011;44794;42.652;23.318;2023-03-23T05:49:10;69.18;;;38.47;;
59008;SDS011;44794;42.652;23.318;2023-03-23T05:51:35;74.70;;;39.10;;
59008;SDS011;44794;42.652;23.318;2023-03-23T05:54:01;71.85;;;39.38;;
59008;SDS011;44794;42.652;23.318;2023-03-23T05:56:26;70.95;;;38.13;;
59008;SDS011;44794;42.652;23.318;2023-03-23T05:58:56;68.32;;;38.40;;
59008;SDS011;44794;42.652;23.318;2023-03-23T06:01:23;72.00;;;39.70;;
59008;SDS011;44794;42.652;23.318;2023-03-23T06:03:49;66.45;;;37.80;;
59008;SDS011;44794;42.652;23.318;2023-03-23T06:06:18;62.90;;;35.78;;
59008;SDS011;44794;42.652;23.318;2023-03-23T06:08:46;60.55;;;36.03;;
59008;SDS011;44794;42.652;23.318;2023-03-23T06:11:13;61.75;;;36.97;;
59008;SDS011;44794;42.652;23.318;2023-03-23T06:13:39;61.53;;;35.25;;
59008;SDS011;44794;42.652;23.318;2023-03-23T06:16:04;61.58;;;34.92;;
59008;SDS011;44794;42.652;23.318;2023-03-23T06:18:30;63.58;;;34.83;;
59008;SDS011;44794;42.652;23.318;2023-03-23T06:20:58;52.60;;;31.38;;
59008;SDS011;44794;42.652;23.318;2023-03-23T06:23:25;51.35;;;31.52;;
59008;SDS011;44794;42.652;23.318;2023-03-23T06:25:53;49.22;;;30.92;;
59008;SDS011;44794;42.652;23.318;2023-03-23T06:28:22;55.00;;;32.00;;
59008;SDS011;44794;42.652;23.318;2023-03-23T06:30:47;55.05;;;31.63;;
59008;SDS011;44794;42.652;23.318;2023-03-23T06:33:12;55.50;;;33.75;;
59008;SDS011;44794;42.652;23.318;2023-03-23T06:35:38;56.03;;;33.42;;
59008;SDS011;44794;42.652;23.318;2023-03-23T06:38:03;58.50;;;34.85;;
59008;SDS011;44794;42.652;23.318;2023-03-23T06:40:29;53.70;;;35.20;;
59008;SDS011;44794;42.652;23.318;2023-03-23T06:42:56;56.75;;;37.03;;
59008;SDS011;44794;42.652;23.318;2023-03-23T06:45:23;50.13;;;31.83;;
59008;SDS011;44794;42.652;23.318;2023-03-23T06:47:49;48.40;;;30.55;;
59008;SDS011;44794;42.652;23.318;2023-03-23T06:50:15;49.67;;;30.40;;
59008;SDS011;44794;42.652;23.318;2023-03-23T06:52:44;53.13;;;30.33;;
59008;SDS011;44794;42.652;23.318;2023-03-23T06:55:11;52.33;;;30.65;;
59008;SDS011;44794;42.652;23.318;2023-03-23T06:57:38;44.72;;;29.05;;
59008;SDS011;44794;42.652;23.318;2023-03-23T07:00:03;49.13;;;30.63;;
59008;SDS011;44794;42.652;23.318;2023-03-23T07:02:33;50.35;;;30.13;;
59008;SDS011;44794;42.652;23.318;2023-03-23T07:04:59;47.85;;;28.65;;
59008;SDS011;44794;42.652;23.318;2023-03-23T07:07:25;52.35;;;32.30;;
59008;SDS011;44794;42.652;23.318;2023-03-23T07:09:51;50.65;;;31.17;;
59008;SDS011;44794;42.652;23.318;2023-03-23T07:12:16;45.88;;;29.98;;
59008;SDS011;44794;42.652;23.318;2023-03-23T07:14:41;47.67;;;30.73;;
59008;SDS011;44794;42.652;23.318;2023-03-23T07:17:07;54.78;;;30.23;;
59008;SDS011;44794;42.652;23.318;2023-03-23T07:19:33;41.95;;;29.00;;
59008;SDS011;44794;42.652;23.318;2023-03-23T07:21:58;47.53;;;29.20;;
59008;SDS011;44794;42.652;23.318;2023-03-23T07:24:24;48.58;;;30.42;;
59008;SDS011;44794;42.652;23.318;2023-03-23T07:26:50;48.50;;;30.02;;
59008;SDS011;44794;42.652;23.318;2023-03-23T07:29:15;47.97;;;29.27;;
59008;SDS011;44794;42.652;23.318;2023-03-23T07:31:41;44.13;;;29.00;;
59008;SDS011;44794;42.652;23.318;2023-03-23T07:34:07;45.22;;;28.55;;
59008;SDS011;44794;42.652;23.318;2023-03-23T07:36:33;47.78;;;27.95;;
59008;SDS011;44794;42.652;23.318;2023-03-23T07:39:02;43.45;;;27.52;;
59008;SDS011;44794;42.652;23.318;2023-03-23T07:41:30;43.78;;;28.52;;
59008;SDS011;44794;42.652;23.318;2023-03-23T07:43:56;45.78;;;28.88;;
59008;SDS011;44794;42.652;23.318;2023-03-23T07:46:22;47.00;;;27.02;;
59008;SDS011;44794;42.652;23.318;2023-03-23T07:48:47;44.92;;;27.27;;
59008;SDS011;44794;42.652;23.318;2023-03-23T07:51:14;40.90;;;27.85;;
59008;SDS011;44794;42.652;23.318;2023-03-23T07:53:42;45.80;;;27.85;;
59008;SDS011;44794;42.652;23.318;2023-03-23T07:56:10;42.92;;;26.75;;
59008;SDS011;44794;42.652;23.318;2023-03-23T07:58:37;49.80;;;27.08;;
59008;SDS011;44794;42.652;23.318;2023-03-23T08:01:03;46.80;;;26.58;;
59008;SDS011;44794;42.652;23.318;2023-03-23T08:03:28;41.05;;;25.50;;
59008;SDS011;44794;42.652;23.318;2023-03-23T08:05:57;40.90;;;24.98;;
59008;SDS011;44794;42.652;23.318;2023-03-23T08:08:24;39.60;;;24.05;;
59008;SDS011;44794;42.652;23.318;2023-03-23T08:10:49;41.70;;;23.23;;
59008;SDS011;44794;42.652;23.318;2023-03-23T08:13:15;36.75;;;22.25;;
59008;SDS011;44794;42.652;23.318;2023-03-23T08:15:41;32.47;;;22.60;;
59008;SDS011;44794;42.652;23.318;2023-03-23T08:18:07;39.60;;;23.63;;
59008;SDS011;44794;42.652;23.318;2023-03-23T08:20:33;35.80;;;20.10;;
59008;SDS011;44794;42.652;23.318;2023-03-23T08:22:58;36.95;;;21.88;;
59008;SDS011;44794;42.652;23.318;2023-03-23T08:25:25;28.50;;;18.38;;
59008;SDS011;44794;42.652;23.318;2023-03-23T08:27:51;29.90;;;19.92;;
59008;SDS011;44794;42.652;23.318;2023-03-23T08:30:18;32.40;;;20.73;;
59008;SDS011;44794;42.652;23.318;2023-03-23T08:32:45;34.85;;;21.65;;
59008;SDS011;44794;42.652;23.318;2023-03-23T08:35:11;36.30;;;21.00;;
59008;SDS011;44794;42.652;23.318;2023-03-23T08:37:38;35.92;;;18.98;;
59008;SDS011;44794;42.652;23.318;2023-03-23T08:40:09;32.72;;;18.17;;
59008;SDS011;44794;42.652;23.318;2023-03-23T08:42:36;31.55;;;19.33;;
59008;SDS011;44794;42.652;23.318;2023-03-23T08:45:05;32.22;;;20.17;;
59008;SDS011;44794;42.652;23.318;2023-03-23T08:47:32;14.90;;;10.68;;
59008;SDS011;44794;42.652;23.318;2023-03-23T08:49:58;23.48;;;13.18;;
59008;SDS011;44794;42.652;23.318;2023-03-23T08:52:24;18.73;;;12.25;;
59008;SDS011;44794;42.652;23.318;2023-03-23T08:54:49;21.48;;;13.30;;
59008;SDS011;44794;42.652;23.318;2023-03-23T08:57:15;12.30;;;9.20;;
59008;SDS011;44794;42.652;23.318;2023-03-23T08:59:41;17.95;;;9.85;;
59008;SDS011;44794;42.652;23.318;2023-03-23T09:02:10;15.20;;;10.65;;
59008;SDS011;44794;42.652;23.318;2023-03-23T09:04:40;15.25;;;10.60;;
59008;SDS011;44794;42.652;23.318;2023-03-23T09:07:12;17.48;;;11.00;;
59008;SDS011;44794;42.652;23.318;2023-03-23T09:09:39;16.27;;;11.73;;
59008;SDS011;44794;42.652;23.318;2023-03-23T09:12:06;17.55;;;8.75;;
59008;SDS011;44794;42.652;23.318;2023-03-23T09:14:33;13.93;;;9.35;;
59008;SDS011;44794;42.652;23.318;2023-03-23T09:16:59;15.00;;;10.23;;
59008;SDS011;44794;42.652;23.318;2023-03-23T09:19:24;16.30;;;10.88;;
59008;SDS011;44794;42.652;23.318;2023-03-23T09:21:50;15.63;;;10.43;;
59008;SDS011;44794;42.652;23.318;2023-03-23T09:24:16;19.67;;;12.43;;
59008;SDS011;44794;42.652;23.318;2023-03-23T09:26:41;17.70;;;11.32;;
59008;SDS011;44794;42.652;23.318;2023-03-23T09:29:07;15.15;;;11.07;;
59008;SDS011;44794;42.652;23.318;2023-03-23T09:31:33;17.75;;;10.65;;
59008;SDS011;44794;42.652;23.318;2023-03-23T09:34:01;15.95;;;10.57;;
59008;SDS011;44794;42.652;23.318;2023-03-23T09:36:29;14.32;;;10.45;;
59008;SDS011;44794;42.652;23.318;2023-03-23T09:38:55;15.50;;;10.18;;
59008;SDS011;44794;42.652;23.318;2023-03-23T09:41:44;14.45;;;9.90;;
59008;SDS011;44794;42.652;23.318;2023-03-23T09:44:45;15.17;;;10.43;;
59008;SDS011;44794;42.652;23.318;2023-03-23T09:47:32;18.33;;;10.73;;
59008;SDS011;44794;42.652;23.318;2023-03-23T09:50:02;18.00;;;10.50;;
59008;SDS011;44794;42.652;23.318;2023-03-23T09:52:36;22.27;;;10.90;;
59008;SDS011;44794;42.652;23.318;2023-03-23T09:55:09;19.20;;;11.40;;
59008;SDS011;44794;42.652;23.318;2023-03-23T10:00:29;16.40;;;9.82;;
59008;SDS011;44794;42.652;23.318;2023-03-23T10:05:47;16.50;;;10.65;;
59008;SDS011;44794;42.652;23.318;2023-03-23T10:11:01;16.15;;;10.50;;
59008;SDS011;44794;42.652;23.318;2023-03-23T10:13:52;16.25;;;10.90;;
59008;SDS011;44794;42.652;23.318;2023-03-23T10:16:36;15.02;;;10.07;;
59008;SDS011;44794;42.652;23.318;2023-03-23T10:19:15;13.00;;;10.35;;
59008;SDS011;44794;42.652;23.318;2023-03-23T10:21:47;17.27;;;10.75;;
59008;SDS011;44794;42.652;23.318;2023-03-23T10:24:21;16.30;;;10.45;;
59008;SDS011;44794;42.652;23.318;2023-03-23T10:27:05;14.57;;;9.70;;
59008;SDS011;44794;42.652;23.318;2023-03-23T10:29:49;17.35;;;10.13;;
59008;SDS011;44794;42.652;23.318;2023-03-23T10:32:21;14.40;;;9.95;;
59008;SDS011;44794;42.652;23.318;2023-03-23T10:35:03;15.13;;;10.15;;
59008;SDS011;44794;42.652;23.318;2023-03-23T10:37:34;11.15;;;9.02;;
59008;SDS011;44794;42.652;23.318;2023-03-23T10:40:04;13.40;;;9.27;;
59008;SDS011;44794;42.652;23.318;2023-03-23T10:42:39;12.82;;;9.02;;
59008;SDS011;44794;42.652;23.318;2023-03-23T10:47:43;13.88;;;10.00;;
59008;SDS011;44794;42.652;23.318;2023-03-23T10:50:14;14.68;;;9.63;;
59008;SDS011;44794;42.652;23.318;2023-03-23T10:52:43;17.48;;;9.90;;
59008;SDS011;44794;42.652;23.318;2023-03-23T10:55:11;13.27;;;8.75;;
59008;SDS011;44794;42.652;23.318;2023-03-23T10:57:45;15.57;;;10.45;;
59008;SDS011;44794;42.652;23.318;2023-03-23T11:00:23;14.50;;;10.25;;
59008;SDS011;44794;42.652;23.318;2023-03-23T11:05:36;11.68;;;9.15;;
59008;SDS011;44794;42.652;23.318;2023-03-23T11:08:12;12.45;;;8.82;;
59008;SDS011;44794;42.652;23.318;2023-03-23T11:10:41;13.25;;;9.00;;
59008;SDS011;44794;42.652;23.318;2023-03-23T11:13:13;14.05;;;8.75;;
59008;SDS011;44794;42.652;23.318;2023-03-23T11:15:41;16.52;;;9.25;;
59008;SDS011;44794;42.652;23.318;2023-03-23T11:18:10;19.48;;;9.98;;
59008;SDS011;44794;42.652;23.318;2023-03-23T11:20:59;13.57;;;9.93;;
59008;SDS011;44794;42.652;23.318;2023-03-23T11:23:27;16.45;;;10.25;;
59008;SDS011;44794;42.652;23.318;2023-03-23T11:28:26;11.90;;;8.60;;
59008;SDS011;44794;42.652;23.318;2023-03-23T11:31:04;11.20;;;8.13;;
59008;SDS011;44794;42.652;23.318;2023-03-23T11:36:19;15.95;;;9.07;;
59008;SDS011;44794;42.652;23.318;2023-03-23T11:38:45;12.80;;;9.35;;
59008;SDS011;44794;42.652;23.318;2023-03-23T11:41:12;12.70;;;9.00;;
59008;SDS011;44794;42.652;23.318;2023-03-23T11:43:44;16.38;;;9.05;;
59008;SDS011;44794;42.652;23.318;2023-03-23T11:46:13;13.95;;;8.73;;
59008;SDS011;44794;42.652;23.318;2023-03-23T11:48:58;12.20;;;8.38;;
59008;SDS011;44794;42.652;23.318;2023-03-23T11:56:38;13.63;;;7.57;;
59008;SDS011;44794;42.652;23.318;2023-03-23T11:59:13;9.95;;;7.22;;
59008;SDS011;44794;42.652;23.318;2023-03-23T12:02:03;10.70;;;6.93;;
59008;SDS011;44794;42.652;23.318;2023-03-23T12:19:09;11.27;;;7.90;;
59008;SDS011;44794;42.652;23.318;2023-03-23T12:35:47;12.82;;;7.63;;
59008;SDS011;44794;42.652;23.318;2023-03-23T12:44:39;13.25;;;8.45;;
59008;SDS011;44794;42.652;23.318;2023-03-23T12:47:18;13.83;;;8.87;;
59008;SDS011;44794;42.652;23.318;2023-03-23T12:50:05;13.75;;;8.75;;
59008;SDS011;44794;42.652;23.318;2023-03-23T12:55:16;12.98;;;8.23;;
59008;SDS011;44794;42.652;23.318;2023-03-23T12:57:59;11.48;;;8.15;;
59008;SDS011;44794;42.652;23.318;2023-03-23T13:00:30;12.18;;;9.05;;
59008;SDS011;44794;42.652;23.318;2023-03-23T13:04:04;12.38;;;7.60;;
59008;SDS011;44794;42.652;23.318;2023-03-23T13:06:08;11.05;;;7.57;;
59008;SDS011;44794;42.652;23.318;2023-03-23T13:08:56;9.63;;;7.90;;
59008;SDS011;44794;42.652;23.318;2023-03-23T13:11:32;11.05;;;7.30;;
59008;SDS011;44794;42.652;23.318;2023-03-23T13:23:05;8.95;;;7.15;;
59008;SDS011;44794;42.652;23.318;2023-03-23T13:28:18;10.15;;;7.10;;
59008;SDS011;44794;42.652;23.318;2023-03-23T13:30:54;11.30;;;7.80;;
59008;SDS011;44794;42.652;23.318;2023-03-23T13:33:22;11.82;;;7.85;;
59008;SDS011;44794;42.652;23.318;2023-03-23T13:35:48;11.88;;;7.68;;
59008;SDS011;44794;42.652;23.318;2023-03-23T13:38:21;11.70;;;7.57;;
59008;SDS011;44794;42.652;23.318;2023-03-23T13:40:50;10.65;;;7.55;;
59008;SDS011;44794;42.652;23.318;2023-03-23T13:43:29;9.40;;;7.43;;
59008;SDS011;44794;42.652;23.318;2023-03-23T13:46:06;10.65;;;7.20;;
59008;SDS011;44794;42.652;23.318;2023-03-23T13:48:43;10.98;;;6.90;;
59008;SDS011;44794;42.652;23.318;2023-03-23T13:57:00;10.20;;;6.78;;
59008;SDS011;44794;42.652;23.318;2023-03-23T14:02:32;11.13;;;7.63;;
59008;SDS011;44794;42.652;23.318;2023-03-23T14:07:56;9.43;;;7.22;;
59008;SDS011;44794;42.652;23.318;2023-03-23T14:10:30;11.65;;;7.10;;
59008;SDS011;44794;42.652;23.318;2023-03-23T14:12:58;13.18;;;7.13;;
59008;SDS011;44794;42.652;23.318;2023-03-23T14:15:37;11.35;;;7.28;;
59008;SDS011;44794;42.652;23.318;2023-03-23T14:18:12;15.27;;;7.30;;
59008;SDS011;44794;42.652;23.318;2023-03-23T14:20:40;12.55;;;6.80;;
59008;SDS011;44794;42.652;23.318;2023-03-23T14:23:12;12.02;;;7.90;;
59008;SDS011;44794;42.652;23.318;2023-03-23T14:25:40;10.07;;;7.60;;
59008;SDS011;44794;42.652;23.318;2023-03-23T14:28:16;9.90;;;7.78;;
59008;SDS011;44794;42.652;23.318;2023-03-23T14:30:43;13.90;;;8.20;;
59008;SDS011;44794;42.652;23.318;2023-03-23T14:33:09;12.93;;;7.78;;
59008;SDS011;44794;42.652;23.318;2023-03-23T14:35:37;11.25;;;7.55;;
59008;SDS011;44794;42.652;23.318;2023-03-23T14:38:14;11.98;;;7.70;;
59008;SDS011;44794;42.652;23.318;2023-03-23T14:40:43;15.80;;;7.50;;
59008;SDS011;44794;42.652;23.318;2023-03-23T14:43:10;10.57;;;7.30;;
59008;SDS011;44794;42.652;23.318;2023-03-23T14:45:39;11.85;;;7.28;;
59008;SDS011;44794;42.652;23.318;2023-03-23T14:48:05;12.02;;;7.78;;
59008;SDS011;44794;42.652;23.318;2023-03-23T14:50:38;17.05;;;8.60;;
59008;SDS011;44794;42.652;23.318;2023-03-23T14:53:23;10.50;;;7.60;;
59008;SDS011;44794;42.652;23.318;2023-03-23T14:55:59;12.35;;;6.88;;
59008;SDS011;44794;42.652;23.318;2023-03-23T14:58:28;10.65;;;7.22;;
59008;SDS011;44794;42.652;23.318;2023-03-23T15:00:56;13.02;;;7.88;;
59008;SDS011;44794;42.652;23.318;2023-03-23T15:03:23;12.35;;;7.70;;
59008;SDS011;44794;42.652;23.318;2023-03-23T15:05:51;13.88;;;7.70;;
59008;SDS011;44794;42.652;23.318;2023-03-23T15:08:30;12.10;;;8.05;;
59008;SDS011;44794;42.652;23.318;2023-03-23T15:11:31;10.60;;;7.20;;
59008;SDS011;44794;42.652;23.318;2023-03-23T15:13:53;12.52;;;8.30;;
59008;SDS011;44794;42.652;23.318;2023-03-23T15:16:27;10.43;;;7.90;;
59008;SDS011;44794;42.652;23.318;2023-03-23T15:19:04;13.05;;;7.53;;
59008;SDS011;44794;42.652;23.318;2023-03-23T15:21:35;11.70;;;7.40;;
59008;SDS011;44794;42.652;23.318;2023-03-23T15:27:03;12.75;;;7.72;;
59008;SDS011;44794;42.652;23.318;2023-03-23T15:29:45;11.70;;;8.07;;
59008;SDS011;44794;42.652;23.318;2023-03-23T15:33:02;15.87;;;8.50;;
59008;SDS011;44794;42.652;23.318;2023-03-23T15:35:11;15.65;;;8.27;;
59008;SDS011;44794;42.652;23.318;2023-03-23T15:37:43;12.82;;;7.85;;
59008;SDS011;44794;42.652;23.318;2023-03-23T15:40:15;12.48;;;7.82;;
59008;SDS011;44794;42.652;23.318;2023-03-23T15:42:42;16.63;;;8.25;;
59008;SDS011;44794;42.652;23.318;2023-03-23T15:50:12;12.23;;;7.63;;
59008;SDS011;44794;42.652;23.318;2023-03-23T15:52:50;11.05;;;7.70;;
59008;SDS011;44794;42.652;23.318;2023-03-23T15:55:25;11.45;;;8.50;;
59008;SDS011;44794;42.652;23.318;2023-03-23T15:57:53;10.10;;;7.40;;
59008;SDS011;44794;42.652;23.318;2023-03-23T16:00:21;14.10;;;8.23;;
59008;SDS011;44794;42.652;23.318;2023-03-23T16:02:50;10.55;;;7.53;;
59008;SDS011;44794;42.652;23.318;2023-03-23T16:05:19;14.48;;;7.90;;
59008;SDS011;44794;42.652;23.318;2023-03-23T16:07:45;13.65;;;8.05;;
59008;SDS011;44794;42.652;23.318;2023-03-23T16:10:15;19.35;;;7.82;;
59008;SDS011;44794;42.652;23.318;2023-03-23T16:12:43;17.15;;;8.73;;
59008;SDS011;44794;42.652;23.318;2023-03-23T16:15:09;17.05;;;7.90;;
59008;SDS011;44794;42.652;23.318;2023-03-23T16:17:35;13.02;;;8.05;;
59008;SDS011;44794;42.652;23.318;2023-03-23T16:20:01;17.60;;;8.40;;
59008;SDS011;44794;42.652;23.318;2023-03-23T16:22:28;10.30;;;7.95;;
59008;SDS011;44794;42.652;23.318;2023-03-23T16:24:53;18.23;;;9.27;;